sensor_id;sensor_type;location;lat;lon;timestamp;P1;durP1;ratioP1;P2;durP2;ratioP2
14139;SDS011;7150;53.514;9.988;2023-02-11T00:00:11;41.40;;;18.20;;
14139;SDS011;7150;53.514;9.988;2023-02-11T00:02:37;32.37;;;16.53;;
14139;SDS011;7150;53.514;9.988;2023-02-11T00:05:02;38.13;;;18.33;;
14139;SDS011;7150;53.514;9.988;2023-02-11T00:07:28;36.63;;;17.70;;
14139;SDS011;7150;53.514;9.988;2023-02-11T00:09:54;36.70;;;17.80;;
14139;SDS011;7150;53.514;9.988;2023-02-11T00:12:20;40.80;;;18.00;;
14139;SDS011;7150;53.514;9.988;2023-02-11T00:14:46;35.70;;;18.07;;
14139;SDS011;7150;53.514;9.988;2023-02-11T00:17:11;39.93;;;16.73;;
14139;SDS011;7150;53.514;9.988;2023-02-11T00:19:37;35.30;;;18.37;;
14139;SDS011;7150;53.514;9.988;2023-02-11T00:22:02;37.10;;;18.03;;
14139;SDS011;7150;53.514;9.988;2023-02-11T00:24:28;49.57;;;18.63;;
14139;SDS011;7150;53.514;9.988;2023-02-11T00:26:54;40.10;;;19.30;;
14139;SDS011;7150;53.514;9.988;2023-02-11T00:29:19;40.93;;;18.60;;
14139;SDS011;7150;53.514;9.988;2023-02-11T00:31:45;48.20;;;19.90;;
14139;SDS011;7150;53.514;9.988;2023-02-11T00:34:10;45.27;;;19.13;;
14139;SDS011;7150;53.514;9.988;2023-02-11T00:36:36;40.80;;;19.23;;
14139;SDS011;7150;53.514;9.988;2023-02-11T00:39:01;42.47;;;18.87;;
14139;SDS011;7150;53.514;9.988;2023-02-11T00:41:27;42.23;;;18.83;;
14139;SDS011;7150;53.514;9.988;2023-02-11T00:43:52;39.50;;;18.23;;
14139;SDS011;7150;53.514;9.988;2023-02-11T00:46:18;42.97;;;20.00;;
14139;SDS011;7150;53.514;9.988;2023-02-11T00:48:44;38.87;;;17.63;;
14139;SDS011;7150;53.514;9.988;2023-02-11T00:51:10;37.67;;;19.57;;
14139;SDS011;7150;53.514;9.988;2023-02-11T00:53:36;38.83;;;18.23;;
14139;SDS011;7150;53.514;9.988;2023-02-11T00:56:02;42.20;;;20.13;;
14139;SDS011;7150;53.514;9.988;2023-02-11T00:58:28;44.13;;;19.50;;
14139;SDS011;7150;53.514;9.988;2023-02-11T01:00:53;39.30;;;19.47;;
14139;SDS011;7150;53.514;9.988;2023-02-11T01:03:19;45.07;;;19.50;;
14139;SDS011;7150;53.514;9.988;2023-02-11T01:05:44;41.70;;;19.13;;
14139;SDS011;7150;53.514;9.988;2023-02-11T01:08:10;46.90;;;19.17;;
14139;SDS011;7150;53.514;9.988;2023-02-11T01:10:36;43.43;;;20.80;;
14139;SDS011;7150;53.514;9.988;2023-02-11T01:13:01;44.17;;;19.63;;
14139;SDS011;7150;53.514;9.988;2023-02-11T01:15:27;39.70;;;17.97;;
14139;SDS011;7150;53.514;9.988;2023-02-11T01:17:53;41.03;;;19.77;;
14139;SDS011;7150;53.514;9.988;2023-02-11T01:20:21;44.70;;;19.60;;
14139;SDS011;7150;53.514;9.988;2023-02-11T01:22:48;47.03;;;20.67;;
14139;SDS011;7150;53.514;9.988;2023-02-11T01:25:13;39.17;;;19.57;;
14139;SDS011;7150;53.514;9.988;2023-02-11T01:27:39;44.17;;;19.97;;
14139;SDS011;7150;53.514;9.988;2023-02-11T01:30:06;42.50;;;20.13;;
14139;SDS011;7150;53.514;9.988;2023-02-11T01:32:32;42.37;;;19.40;;
14139;SDS011;7150;53.514;9.988;2023-02-11T01:34:58;47.40;;;21.30;;
14139;SDS011;7150;53.514;9.988;2023-02-11T01:37:24;45.33;;;20.63;;
14139;SDS011;7150;53.514;9.988;2023-02-11T01:39:49;41.30;;;20.40;;
14139;SDS011;7150;53.514;9.988;2023-02-11T01:42:16;36.10;;;18.93;;
14139;SDS011;7150;53.514;9.988;2023-02-11T01:44:43;42.07;;;21.50;;
14139;SDS011;7150;53.514;9.988;2023-02-11T01:47:09;45.60;;;19.60;;
14139;SDS011;7150;53.514;9.988;2023-02-11T01:49:38;49.37;;;19.60;;
14139;SDS011;7150;53.514;9.988;2023-02-11T01:52:15;42.33;;;19.13;;
14139;SDS011;7150;53.514;9.988;2023-02-11T01:54:47;42.10;;;18.70;;
14139;SDS011;7150;53.514;9.988;2023-02-11T01:57:36;44.20;;;18.77;;
14139;SDS011;7150;53.514;9.988;2023-02-11T02:02:40;42.70;;;19.47;;
14139;SDS011;7150;53.514;9.988;2023-02-11T02:05:12;47.03;;;21.83;;
14139;SDS011;7150;53.514;9.988;2023-02-11T02:10:43;40.03;;;19.40;;
14139;SDS011;7150;53.514;9.988;2023-02-11T02:13:11;41.63;;;20.20;;
14139;SDS011;7150;53.514;9.988;2023-02-11T02:15:39;37.90;;;18.87;;
14139;SDS011;7150;53.514;9.988;2023-02-11T02:18:32;43.17;;;19.63;;
14139;SDS011;7150;53.514;9.988;2023-02-11T02:24:29;39.90;;;18.30;;
14139;SDS011;7150;53.514;9.988;2023-02-11T02:27:28;35.23;;;17.60;;
14139;SDS011;7150;53.514;9.988;2023-02-11T02:32:52;35.33;;;15.93;;
14139;SDS011;7150;53.514;9.988;2023-02-11T02:35:34;40.60;;;18.00;;
14139;SDS011;7150;53.514;9.988;2023-02-11T02:38:26;36.77;;;17.23;;
14139;SDS011;7150;53.514;9.988;2023-02-11T02:40:58;42.47;;;17.10;;
14139;SDS011;7150;53.514;9.988;2023-02-11T02:43:28;38.83;;;17.10;;
14139;SDS011;7150;53.514;9.988;2023-02-11T02:45:54;34.73;;;16.80;;
14139;SDS011;7150;53.514;9.988;2023-02-11T02:48:32;33.07;;;16.10;;
14139;SDS011;7150;53.514;9.988;2023-02-11T02:56:47;33.63;;;16.47;;
14139;SDS011;7150;53.514;9.988;2023-02-11T03:10:21;37.40;;;16.43;;
14139;SDS011;7150;53.514;9.988;2023-02-11T03:12:50;37.50;;;15.33;;
14139;SDS011;7150;53.514;9.988;2023-02-11T03:15:18;34.03;;;16.93;;
14139;SDS011;7150;53.514;9.988;2023-02-11T03:17:47;35.53;;;15.83;;
14139;SDS011;7150;53.514;9.988;2023-02-11T03:20:16;35.40;;;16.57;;
14139;SDS011;7150;53.514;9.988;2023-02-11T03:22:53;36.43;;;16.60;;
14139;SDS011;7150;53.514;9.988;2023-02-11T03:25:24;33.57;;;16.33;;
14139;SDS011;7150;53.514;9.988;2023-02-11T03:28:02;43.57;;;17.73;;
14139;SDS011;7150;53.514;9.988;2023-02-11T03:30:48;32.23;;;14.27;;
14139;SDS011;7150;53.514;9.988;2023-02-11T03:33:28;39.17;;;16.60;;
14139;SDS011;7150;53.514;9.988;2023-02-11T03:36:01;38.70;;;14.87;;
14139;SDS011;7150;53.514;9.988;2023-02-11T03:38:31;29.20;;;13.73;;
14139;SDS011;7150;53.514;9.988;2023-02-11T03:41:00;32.37;;;14.77;;
14139;SDS011;7150;53.514;9.988;2023-02-11T03:43:32;31.20;;;14.87;;
14139;SDS011;7150;53.514;9.988;2023-02-11T03:46:00;32.07;;;15.07;;
14139;SDS011;7150;53.514;9.988;2023-02-11T03:48:28;30.57;;;14.23;;
14139;SDS011;7150;53.514;9.988;2023-02-11T03:50:55;32.13;;;12.87;;
14139;SDS011;7150;53.514;9.988;2023-02-11T03:53:22;29.37;;;13.80;;
14139;SDS011;7150;53.514;9.988;2023-02-11T03:55:48;36.37;;;14.30;;
14139;SDS011;7150;53.514;9.988;2023-02-11T03:58:16;31.30;;;14.07;;
14139;SDS011;7150;53.514;9.988;2023-02-11T04:00:42;31.67;;;13.30;;
14139;SDS011;7150;53.514;9.988;2023-02-11T04:03:08;26.80;;;12.43;;
14139;SDS011;7150;53.514;9.988;2023-02-11T04:05:35;36.03;;;13.27;;
14139;SDS011;7150;53.514;9.988;2023-02-11T04:08:01;24.57;;;11.87;;
14139;SDS011;7150;53.514;9.988;2023-02-11T04:10:26;30.37;;;12.70;;
14139;SDS011;7150;53.514;9.988;2023-02-11T04:12:52;31.20;;;12.97;;
14139;SDS011;7150;53.514;9.988;2023-02-11T04:15:17;29.43;;;13.37;;
14139;SDS011;7150;53.514;9.988;2023-02-11T04:17:43;30.13;;;11.93;;
14139;SDS011;7150;53.514;9.988;2023-02-11T04:20:09;26.87;;;11.40;;
14139;SDS011;7150;53.514;9.988;2023-02-11T04:22:35;23.77;;;11.20;;
14139;SDS011;7150;53.514;9.988;2023-02-11T04:25:01;32.93;;;12.13;;
14139;SDS011;7150;53.514;9.988;2023-02-11T04:27:27;22.43;;;11.13;;
14139;SDS011;7150;53.514;9.988;2023-02-11T04:29:53;29.00;;;12.00;;
14139;SDS011;7150;53.514;9.988;2023-02-11T04:32:19;23.03;;;11.47;;
14139;SDS011;7150;53.514;9.988;2023-02-11T04:34:44;25.90;;;11.23;;
14139;SDS011;7150;53.514;9.988;2023-02-11T04:37:10;28.77;;;10.50;;
14139;SDS011;7150;53.514;9.988;2023-02-11T04:39:35;27.07;;;11.37;;
14139;SDS011;7150;53.514;9.988;2023-02-11T04:42:01;27.23;;;12.23;;
14139;SDS011;7150;53.514;9.988;2023-02-11T04:44:26;25.13;;;10.80;;
14139;SDS011;7150;53.514;9.988;2023-02-11T04:46:52;26.30;;;10.03;;
14139;SDS011;7150;53.514;9.988;2023-02-11T04:49:18;25.27;;;11.00;;
14139;SDS011;7150;53.514;9.988;2023-02-11T04:51:43;28.07;;;10.73;;
14139;SDS011;7150;53.514;9.988;2023-02-11T04:54:09;24.47;;;10.50;;
14139;SDS011;7150;53.514;9.988;2023-02-11T04:56:35;24.83;;;10.23;;
14139;SDS011;7150;53.514;9.988;2023-02-11T04:59:00;29.50;;;11.70;;
14139;SDS011;7150;53.514;9.988;2023-02-11T05:01:26;23.40;;;10.17;;
14139;SDS011;7150;53.514;9.988;2023-02-11T05:03:51;27.43;;;12.20;;
14139;SDS011;7150;53.514;9.988;2023-02-11T05:06:17;25.70;;;10.77;;
14139;SDS011;7150;53.514;9.988;2023-02-11T05:08:43;23.23;;;9.67;;
14139;SDS011;7150;53.514;9.988;2023-02-11T05:11:13;23.10;;;10.40;;
14139;SDS011;7150;53.514;9.988;2023-02-11T05:13:41;26.57;;;10.00;;
14139;SDS011;7150;53.514;9.988;2023-02-11T05:16:06;29.60;;;10.23;;
14139;SDS011;7150;53.514;9.988;2023-02-11T05:18:32;26.60;;;10.50;;
14139;SDS011;7150;53.514;9.988;2023-02-11T05:20:57;25.93;;;10.63;;
14139;SDS011;7150;53.514;9.988;2023-02-11T05:23:23;23.67;;;9.80;;
14139;SDS011;7150;53.514;9.988;2023-02-11T05:25:48;29.67;;;11.57;;
14139;SDS011;7150;53.514;9.988;2023-02-11T05:28:14;23.17;;;9.97;;
14139;SDS011;7150;53.514;9.988;2023-02-11T05:30:40;30.00;;;11.23;;
14139;SDS011;7150;53.514;9.988;2023-02-11T05:33:05;30.27;;;11.30;;
14139;SDS011;7150;53.514;9.988;2023-02-11T05:35:31;24.57;;;10.80;;
14139;SDS011;7150;53.514;9.988;2023-02-11T05:37:56;34.80;;;11.70;;
14139;SDS011;7150;53.514;9.988;2023-02-11T05:40:22;25.63;;;10.90;;
14139;SDS011;7150;53.514;9.988;2023-02-11T05:42:47;28.97;;;10.20;;
14139;SDS011;7150;53.514;9.988;2023-02-11T05:45:13;34.37;;;11.07;;
14139;SDS011;7150;53.514;9.988;2023-02-11T05:47:38;22.47;;;10.43;;
14139;SDS011;7150;53.514;9.988;2023-02-11T05:50:04;29.00;;;10.20;;
14139;SDS011;7150;53.514;9.988;2023-02-11T05:52:29;23.70;;;9.10;;
14139;SDS011;7150;53.514;9.988;2023-02-11T05:54:55;22.27;;;9.07;;
14139;SDS011;7150;53.514;9.988;2023-02-11T05:57:20;19.43;;;8.67;;
14139;SDS011;7150;53.514;9.988;2023-02-11T05:59:46;25.53;;;10.13;;
14139;SDS011;7150;53.514;9.988;2023-02-11T06:02:11;19.47;;;9.07;;
14139;SDS011;7150;53.514;9.988;2023-02-11T06:04:37;20.60;;;9.00;;
14139;SDS011;7150;53.514;9.988;2023-02-11T06:07:02;19.93;;;9.13;;
14139;SDS011;7150;53.514;9.988;2023-02-11T06:09:28;28.00;;;10.33;;
14139;SDS011;7150;53.514;9.988;2023-02-11T06:11:54;18.70;;;10.33;;
14139;SDS011;7150;53.514;9.988;2023-02-11T06:14:19;22.37;;;9.70;;
14139;SDS011;7150;53.514;9.988;2023-02-11T06:16:45;23.17;;;9.23;;
14139;SDS011;7150;53.514;9.988;2023-02-11T06:19:11;20.97;;;9.40;;
14139;SDS011;7150;53.514;9.988;2023-02-11T06:21:37;18.53;;;9.17;;
14139;SDS011;7150;53.514;9.988;2023-02-11T06:24:03;23.37;;;10.13;;
14139;SDS011;7150;53.514;9.988;2023-02-11T06:26:29;17.43;;;9.30;;
14139;SDS011;7150;53.514;9.988;2023-02-11T06:28:58;21.87;;;9.53;;
14139;SDS011;7150;53.514;9.988;2023-02-11T06:31:24;24.20;;;9.83;;
14139;SDS011;7150;53.514;9.988;2023-02-11T06:33:50;23.97;;;9.23;;
14139;SDS011;7150;53.514;9.988;2023-02-11T06:36:17;14.40;;;7.60;;
14139;SDS011;7150;53.514;9.988;2023-02-11T06:38:44;20.00;;;8.33;;
14139;SDS011;7150;53.514;9.988;2023-02-11T06:41:11;21.90;;;9.83;;
14139;SDS011;7150;53.514;9.988;2023-02-11T06:43:38;18.73;;;8.80;;
14139;SDS011;7150;53.514;9.988;2023-02-11T06:46:04;23.70;;;10.23;;
14139;SDS011;7150;53.514;9.988;2023-02-11T06:48:30;23.77;;;9.57;;
14139;SDS011;7150;53.514;9.988;2023-02-11T06:50:55;19.73;;;9.27;;
14139;SDS011;7150;53.514;9.988;2023-02-11T06:53:21;19.33;;;9.67;;
14139;SDS011;7150;53.514;9.988;2023-02-11T06:55:46;22.67;;;8.60;;
14139;SDS011;7150;53.514;9.988;2023-02-11T06:58:12;20.10;;;9.67;;
14139;SDS011;7150;53.514;9.988;2023-02-11T07:00:38;20.53;;;10.10;;
14139;SDS011;7150;53.514;9.988;2023-02-11T07:03:03;21.37;;;9.77;;
14139;SDS011;7150;53.514;9.988;2023-02-11T07:05:29;17.13;;;8.27;;
14139;SDS011;7150;53.514;9.988;2023-02-11T07:07:54;19.03;;;10.07;;
14139;SDS011;7150;53.514;9.988;2023-02-11T07:10:20;16.67;;;8.60;;
14139;SDS011;7150;53.514;9.988;2023-02-11T07:12:45;14.53;;;8.97;;
14139;SDS011;7150;53.514;9.988;2023-02-11T07:15:10;18.97;;;8.93;;
14139;SDS011;7150;53.514;9.988;2023-02-11T07:17:36;17.30;;;9.00;;
14139;SDS011;7150;53.514;9.988;2023-02-11T07:20:02;18.63;;;9.30;;
14139;SDS011;7150;53.514;9.988;2023-02-11T07:22:27;20.13;;;9.27;;
14139;SDS011;7150;53.514;9.988;2023-02-11T07:24:53;19.50;;;9.20;;
14139;SDS011;7150;53.514;9.988;2023-02-11T07:27:18;20.57;;;9.43;;
14139;SDS011;7150;53.514;9.988;2023-02-11T07:29:44;17.83;;;8.90;;
14139;SDS011;7150;53.514;9.988;2023-02-11T07:32:10;23.17;;;9.87;;
14139;SDS011;7150;53.514;9.988;2023-02-11T07:34:37;19.13;;;10.30;;
14139;SDS011;7150;53.514;9.988;2023-02-11T07:37:02;21.70;;;10.00;;
14139;SDS011;7150;53.514;9.988;2023-02-11T07:39:28;18.17;;;8.80;;
14139;SDS011;7150;53.514;9.988;2023-02-11T07:41:54;19.73;;;8.90;;
14139;SDS011;7150;53.514;9.988;2023-02-11T07:44:19;20.87;;;10.30;;
14139;SDS011;7150;53.514;9.988;2023-02-11T07:46:45;19.67;;;9.27;;
14139;SDS011;7150;53.514;9.988;2023-02-11T07:49:12;18.77;;;10.33;;
14139;SDS011;7150;53.514;9.988;2023-02-11T07:51:38;18.90;;;9.73;;
14139;SDS011;7150;53.514;9.988;2023-02-11T07:54:04;19.97;;;9.70;;
14139;SDS011;7150;53.514;9.988;2023-02-11T07:56:29;23.27;;;10.53;;
14139;SDS011;7150;53.514;9.988;2023-02-11T07:58:58;22.60;;;9.47;;
14139;SDS011;7150;53.514;9.988;2023-02-11T08:01:25;18.67;;;9.60;;
14139;SDS011;7150;53.514;9.988;2023-02-11T08:03:52;19.53;;;9.40;;
14139;SDS011;7150;53.514;9.988;2023-02-11T08:06:19;16.67;;;8.83;;
14139;SDS011;7150;53.514;9.988;2023-02-11T08:08:46;19.00;;;9.23;;
14139;SDS011;7150;53.514;9.988;2023-02-11T08:11:22;28.87;;;9.30;;
14139;SDS011;7150;53.514;9.988;2023-02-11T08:13:49;19.50;;;9.73;;
14139;SDS011;7150;53.514;9.988;2023-02-11T08:16:22;17.13;;;8.70;;
14139;SDS011;7150;53.514;9.988;2023-02-11T08:18:49;18.80;;;9.43;;
14139;SDS011;7150;53.514;9.988;2023-02-11T08:21:16;15.97;;;9.33;;
14139;SDS011;7150;53.514;9.988;2023-02-11T08:23:42;20.23;;;8.77;;
14139;SDS011;7150;53.514;9.988;2023-02-11T08:26:09;25.50;;;9.77;;
14139;SDS011;7150;53.514;9.988;2023-02-11T08:28:42;18.63;;;9.10;;
14139;SDS011;7150;53.514;9.988;2023-02-11T08:31:13;22.37;;;9.73;;
14139;SDS011;7150;53.514;9.988;2023-02-11T08:33:40;24.23;;;9.67;;
14139;SDS011;7150;53.514;9.988;2023-02-11T08:36:06;18.67;;;9.47;;
14139;SDS011;7150;53.514;9.988;2023-02-11T08:38:37;21.17;;;9.30;;
14139;SDS011;7150;53.514;9.988;2023-02-11T08:41:02;20.47;;;8.73;;
14139;SDS011;7150;53.514;9.988;2023-02-11T08:43:28;17.27;;;9.33;;
14139;SDS011;7150;53.514;9.988;2023-02-11T08:45:54;20.97;;;9.20;;
14139;SDS011;7150;53.514;9.988;2023-02-11T08:48:19;17.30;;;9.43;;
14139;SDS011;7150;53.514;9.988;2023-02-11T08:50:45;23.70;;;9.37;;
14139;SDS011;7150;53.514;9.988;2023-02-11T08:53:10;19.30;;;9.10;;
14139;SDS011;7150;53.514;9.988;2023-02-11T08:55:36;18.60;;;9.30;;
14139;SDS011;7150;53.514;9.988;2023-02-11T08:58:01;17.77;;;8.27;;
14139;SDS011;7150;53.514;9.988;2023-02-11T09:00:27;18.07;;;8.77;;
14139;SDS011;7150;53.514;9.988;2023-02-11T09:02:52;19.93;;;8.87;;
14139;SDS011;7150;53.514;9.988;2023-02-11T09:05:19;18.10;;;9.47;;
14139;SDS011;7150;53.514;9.988;2023-02-11T09:07:44;21.33;;;9.40;;
14139;SDS011;7150;53.514;9.988;2023-02-11T09:10:10;20.87;;;9.70;;
14139;SDS011;7150;53.514;9.988;2023-02-11T09:12:35;22.47;;;9.77;;
14139;SDS011;7150;53.514;9.988;2023-02-11T09:15:01;20.60;;;9.97;;
14139;SDS011;7150;53.514;9.988;2023-02-11T09:17:26;19.60;;;9.80;;
14139;SDS011;7150;53.514;9.988;2023-02-11T09:19:52;17.97;;;9.80;;
14139;SDS011;7150;53.514;9.988;2023-02-11T09:22:17;17.80;;;9.40;;
14139;SDS011;7150;53.514;9.988;2023-02-11T09:24:43;16.90;;;9.00;;
14139;SDS011;7150;53.514;9.988;2023-02-11T09:27:08;18.93;;;8.30;;
14139;SDS011;7150;53.514;9.988;2023-02-11T09:29:34;18.87;;;8.87;;
14139;SDS011;7150;53.514;9.988;2023-02-11T09:31:59;17.57;;;9.67;;
14139;SDS011;7150;53.514;9.988;2023-02-11T09:34:25;24.40;;;8.60;;
14139;SDS011;7150;53.514;9.988;2023-02-11T09:36:50;24.30;;;9.50;;
14139;SDS011;7150;53.514;9.988;2023-02-11T09:39:17;18.57;;;9.23;;
14139;SDS011;7150;53.514;9.988;2023-02-11T09:44:15;20.97;;;8.47;;
14139;SDS011;7150;53.514;9.988;2023-02-11T09:46:43;17.23;;;8.10;;
14139;SDS011;7150;53.514;9.988;2023-02-11T09:49:14;21.83;;;8.80;;
14139;SDS011;7150;53.514;9.988;2023-02-11T09:51:50;14.27;;;7.60;;
14139;SDS011;7150;53.514;9.988;2023-02-11T09:54:30;16.70;;;7.43;;
14139;SDS011;7150;53.514;9.988;2023-02-11T09:57:07;18.50;;;7.73;;
14139;SDS011;7150;53.514;9.988;2023-02-11T09:59:33;20.53;;;7.87;;
14139;SDS011;7150;53.514;9.988;2023-02-11T10:02:03;17.63;;;7.13;;
14139;SDS011;7150;53.514;9.988;2023-02-11T10:04:43;16.07;;;7.57;;
14139;SDS011;7150;53.514;9.988;2023-02-11T10:07:50;18.70;;;7.53;;
14139;SDS011;7150;53.514;9.988;2023-02-11T10:10:43;18.53;;;7.37;;
14139;SDS011;7150;53.514;9.988;2023-02-11T10:13:34;16.43;;;7.27;;
14139;SDS011;7150;53.514;9.988;2023-02-11T10:16:22;13.07;;;6.57;;
14139;SDS011;7150;53.514;9.988;2023-02-11T10:19:08;23.73;;;7.27;;
14139;SDS011;7150;53.514;9.988;2023-02-11T10:22:15;17.77;;;6.50;;
14139;SDS011;7150;53.514;9.988;2023-02-11T10:24:53;14.40;;;7.10;;
14139;SDS011;7150;53.514;9.988;2023-02-11T10:27:23;19.33;;;7.30;;
14139;SDS011;7150;53.514;9.988;2023-02-11T10:30:03;15.20;;;5.87;;
14139;SDS011;7150;53.514;9.988;2023-02-11T10:35:23;18.97;;;6.57;;
14139;SDS011;7150;53.514;9.988;2023-02-11T10:37:50;19.20;;;6.53;;
14139;SDS011;7150;53.514;9.988;2023-02-11T10:40:16;13.57;;;6.33;;
14139;SDS011;7150;53.514;9.988;2023-02-11T10:42:47;15.90;;;5.80;;
14139;SDS011;7150;53.514;9.988;2023-02-11T10:45:32;15.03;;;5.50;;
14139;SDS011;7150;53.514;9.988;2023-02-11T10:48:03;19.57;;;7.37;;
14139;SDS011;7150;53.514;9.988;2023-02-11T10:50:32;17.20;;;6.33;;
14139;SDS011;7150;53.514;9.988;2023-02-11T10:55:54;16.40;;;6.53;;
14139;SDS011;7150;53.514;9.988;2023-02-11T10:58:25;22.93;;;7.10;;
14139;SDS011;7150;53.514;9.988;2023-02-11T11:00:54;12.47;;;5.47;;
14139;SDS011;7150;53.514;9.988;2023-02-11T11:03:22;14.60;;;6.20;;
14139;SDS011;7150;53.514;9.988;2023-02-11T11:05:51;14.50;;;6.03;;
14139;SDS011;7150;53.514;9.988;2023-02-11T11:08:19;11.37;;;5.47;;
14139;SDS011;7150;53.514;9.988;2023-02-11T11:10:47;17.90;;;5.80;;
14139;SDS011;7150;53.514;9.988;2023-02-11T11:13:29;10.40;;;5.00;;
14139;SDS011;7150;53.514;9.988;2023-02-11T11:16:28;13.07;;;5.33;;
14139;SDS011;7150;53.514;9.988;2023-02-11T11:21:36;16.90;;;6.07;;
14139;SDS011;7150;53.514;9.988;2023-02-11T11:26:59;22.60;;;7.13;;
14139;SDS011;7150;53.514;9.988;2023-02-11T11:29:36;14.37;;;5.27;;
14139;SDS011;7150;53.514;9.988;2023-02-11T11:32:19;10.47;;;4.97;;
14139;SDS011;7150;53.514;9.988;2023-02-11T11:34:49;14.20;;;5.40;;
14139;SDS011;7150;53.514;9.988;2023-02-11T11:37:25;13.30;;;4.73;;
14139;SDS011;7150;53.514;9.988;2023-02-11T11:39:56;13.17;;;5.60;;
14139;SDS011;7150;53.514;9.988;2023-02-11T11:42:33;16.37;;;5.73;;
14139;SDS011;7150;53.514;9.988;2023-02-11T11:45:02;15.27;;;5.00;;
14139;SDS011;7150;53.514;9.988;2023-02-11T11:47:30;10.50;;;5.10;;
14139;SDS011;7150;53.514;9.988;2023-02-11T11:55:40;15.57;;;4.53;;
14139;SDS011;7150;53.514;9.988;2023-02-11T11:58:12;14.37;;;4.93;;
14139;SDS011;7150;53.514;9.988;2023-02-11T12:00:56;11.67;;;4.60;;
14139;SDS011;7150;53.514;9.988;2023-02-11T12:14:27;11.90;;;4.57;;
14139;SDS011;7150;53.514;9.988;2023-02-11T12:23:53;11.13;;;5.20;;
14139;SDS011;7150;53.514;9.988;2023-02-11T12:26:46;13.10;;;5.00;;
14139;SDS011;7150;53.514;9.988;2023-02-11T12:29:36;10.07;;;4.17;;
14139;SDS011;7150;53.514;9.988;2023-02-11T12:35:05;13.30;;;4.40;;
14139;SDS011;7150;53.514;9.988;2023-02-11T12:40:53;10.80;;;4.97;;
14139;SDS011;7150;53.514;9.988;2023-02-11T12:43:42;9.83;;;4.47;;
14139;SDS011;7150;53.514;9.988;2023-02-11T12:46:13;13.23;;;4.70;;
14139;SDS011;7150;53.514;9.988;2023-02-11T12:49:19;14.23;;;3.60;;
14139;SDS011;7150;53.514;9.988;2023-02-11T12:57:46;11.00;;;4.47;;
14139;SDS011;7150;53.514;9.988;2023-02-11T13:08:15;10.63;;;3.70;;
14139;SDS011;7150;53.514;9.988;2023-02-11T13:10:47;7.63;;;3.60;;
14139;SDS011;7150;53.514;9.988;2023-02-11T13:13:59;7.53;;;3.43;;
14139;SDS011;7150;53.514;9.988;2023-02-11T13:18:44;9.97;;;3.00;;
14139;SDS011;7150;53.514;9.988;2023-02-11T13:30:07;16.77;;;3.33;;
14139;SDS011;7150;53.514;9.988;2023-02-11T13:38:02;8.40;;;3.97;;
14139;SDS011;7150;53.514;9.988;2023-02-11T13:41:00;14.10;;;4.20;;
14139;SDS011;7150;53.514;9.988;2023-02-11T13:43:28;16.23;;;4.60;;
14139;SDS011;7150;53.514;9.988;2023-02-11T13:45:59;5.83;;;3.43;;
14139;SDS011;7150;53.514;9.988;2023-02-11T13:48:54;8.43;;;4.07;;
14139;SDS011;7150;53.514;9.988;2023-02-11T13:51:36;11.73;;;4.10;;
14139;SDS011;7150;53.514;9.988;2023-02-11T13:54:04;10.63;;;3.90;;
14139;SDS011;7150;53.514;9.988;2023-02-11T13:56:35;9.77;;;3.50;;
14139;SDS011;7150;53.514;9.988;2023-02-11T13:59:04;8.63;;;3.13;;
14139;SDS011;7150;53.514;9.988;2023-02-11T14:08:11;17.20;;;4.13;;
14139;SDS011;7150;53.514;9.988;2023-02-11T14:10:59;10.50;;;4.03;;
14139;SDS011;7150;53.514;9.988;2023-02-11T14:13:30;12.50;;;3.53;;
14139;SDS011;7150;53.514;9.988;2023-02-11T14:21:21;22.27;;;4.73;;
14139;SDS011;7150;53.514;9.988;2023-02-11T14:23:50;16.37;;;3.77;;
14139;SDS011;7150;53.514;9.988;2023-02-11T14:28:59;12.83;;;4.83;;
14139;SDS011;7150;53.514;9.988;2023-02-11T14:31:43;17.43;;;5.43;;
14139;SDS011;7150;53.514;9.988;2023-02-11T14:42:45;15.80;;;4.93;;
14139;SDS011;7150;53.514;9.988;2023-02-11T14:45:15;16.23;;;4.53;;
14139;SDS011;7150;53.514;9.988;2023-02-11T14:47:45;17.33;;;4.43;;
14139;SDS011;7150;53.514;9.988;2023-02-11T14:50:19;20.17;;;4.80;;
14139;SDS011;7150;53.514;9.988;2023-02-11T14:52:55;15.10;;;4.33;;
14139;SDS011;7150;53.514;9.988;2023-02-11T14:55:31;17.50;;;4.97;;
14139;SDS011;7150;53.514;9.988;2023-02-11T15:00:58;20.43;;;6.57;;
14139;SDS011;7150;53.514;9.988;2023-02-11T15:03:25;18.63;;;6.20;;
14139;SDS011;7150;53.514;9.988;2023-02-11T15:06:03;15.77;;;6.03;;
14139;SDS011;7150;53.514;9.988;2023-02-11T15:08:29;27.93;;;10.03;;
14139;SDS011;7150;53.514;9.988;2023-02-11T15:10:57;32.23;;;11.07;;
14139;SDS011;7150;53.514;9.988;2023-02-11T15:13:26;16.27;;;6.37;;
14139;SDS011;7150;53.514;9.988;2023-02-11T15:15:57;16.33;;;5.37;;
14139;SDS011;7150;53.514;9.988;2023-02-11T15:18:27;18.27;;;5.70;;
14139;SDS011;7150;53.514;9.988;2023-02-11T15:21:01;22.30;;;5.50;;
14139;SDS011;7150;53.514;9.988;2023-02-11T15:23:28;11.23;;;4.90;;
14139;SDS011;7150;53.514;9.988;2023-02-11T15:25:55;10.73;;;4.50;;
14139;SDS011;7150;53.514;9.988;2023-02-11T15:28:22;16.43;;;4.47;;
14139;SDS011;7150;53.514;9.988;2023-02-11T15:30:55;13.63;;;5.03;;
14139;SDS011;7150;53.514;9.988;2023-02-11T15:33:22;19.20;;;5.20;;
14139;SDS011;7150;53.514;9.988;2023-02-11T15:35:49;14.97;;;4.37;;
14139;SDS011;7150;53.514;9.988;2023-02-11T15:38:15;9.73;;;3.90;;
14139;SDS011;7150;53.514;9.988;2023-02-11T15:40:50;15.70;;;4.67;;
14139;SDS011;7150;53.514;9.988;2023-02-11T15:43:45;18.17;;;4.83;;
14139;SDS011;7150;53.514;9.988;2023-02-11T15:46:14;13.93;;;3.77;;
14139;SDS011;7150;53.514;9.988;2023-02-11T15:48:45;9.13;;;4.03;;
14139;SDS011;7150;53.514;9.988;2023-02-11T15:51:23;14.80;;;3.97;;
14139;SDS011;7150;53.514;9.988;2023-02-11T15:53:57;11.10;;;3.47;;
14139;SDS011;7150;53.514;9.988;2023-02-11T15:56:26;12.17;;;3.60;;
14139;SDS011;7150;53.514;9.988;2023-02-11T15:58:55;17.13;;;4.20;;
14139;SDS011;7150;53.514;9.988;2023-02-11T16:01:30;13.83;;;4.83;;
14139;SDS011;7150;53.514;9.988;2023-02-11T16:03:58;15.43;;;4.37;;
14139;SDS011;7150;53.514;9.988;2023-02-11T16:06:25;17.43;;;4.80;;
14139;SDS011;7150;53.514;9.988;2023-02-11T16:09:32;16.37;;;4.27;;
14139;SDS011;7150;53.514;9.988;2023-02-11T16:11:59;13.73;;;5.40;;
14139;SDS011;7150;53.514;9.988;2023-02-11T16:14:32;21.13;;;5.40;;
14139;SDS011;7150;53.514;9.988;2023-02-11T16:17:21;25.33;;;5.97;;
14139;SDS011;7150;53.514;9.988;2023-02-11T16:19:50;22.37;;;6.67;;
14139;SDS011;7150;53.514;9.988;2023-02-11T16:22:19;15.17;;;5.30;;
14139;SDS011;7150;53.514;9.988;2023-02-11T16:24:48;13.77;;;5.20;;
14139;SDS011;7150;53.514;9.988;2023-02-11T16:27:23;26.07;;;5.70;;
14139;SDS011;7150;53.514;9.988;2023-02-11T16:30:00;24.03;;;6.37;;
14139;SDS011;7150;53.514;9.988;2023-02-11T16:32:27;20.27;;;6.63;;
14139;SDS011;7150;53.514;9.988;2023-02-11T16:34:54;20.13;;;6.07;;
14139;SDS011;7150;53.514;9.988;2023-02-11T16:37:22;21.97;;;6.37;;
14139;SDS011;7150;53.514;9.988;2023-02-11T16:39:48;14.77;;;5.77;;
14139;SDS011;7150;53.514;9.988;2023-02-11T16:42:14;29.50;;;7.17;;
14139;SDS011;7150;53.514;9.988;2023-02-11T16:44:39;20.90;;;6.93;;
14139;SDS011;7150;53.514;9.988;2023-02-11T16:47:05;23.30;;;6.27;;
14139;SDS011;7150;53.514;9.988;2023-02-11T16:49:47;20.47;;;6.27;;
14139;SDS011;7150;53.514;9.988;2023-02-11T16:52:13;29.50;;;7.37;;
14139;SDS011;7150;53.514;9.988;2023-02-11T16:54:39;24.90;;;7.50;;
14139;SDS011;7150;53.514;9.988;2023-02-11T16:57:10;34.27;;;7.83;;
14139;SDS011;7150;53.514;9.988;2023-02-11T16:59:38;28.13;;;8.57;;
14139;SDS011;7150;53.514;9.988;2023-02-11T17:02:07;28.43;;;8.07;;
14139;SDS011;7150;53.514;9.988;2023-02-11T17:04:44;26.30;;;7.77;;
14139;SDS011;7150;53.514;9.988;2023-02-11T17:07:10;21.90;;;5.50;;